Val Verde, California
Current Conditions -  °F | °C
As of 9:48 PM on Saturday 25 Oct 2014 (Local Time) from KSDB Reporting Station
Clear Clear  
Wind Chill: 55°   Ceiling: Unl
Heat Index: 55°   Visibility: 10mi
Dew Point: 40°   Wind: 21mph
Humidity: 57%   Direction: 330°NNW
Pressure: 30.16"   Gusts: 31mph
Location:  34.5552°N, 118.643°W
Report Text: KSDB 260448Z AUTO 33018G27KT 10SM CLR 13/04 A3016 RMK AO2 PK WND 33027/0439 SLP170 T01280044
Loading
Personal Weather Stations






























Interactive Weather Map
Tropical Storm Tracking
New forecast layout! Learn more

10-Day Weather Forecast

Advertisements
Track Severe Weather on mobile